sensor_id;sensor_type;location;lat;lon;timestamp;temperature;humidity
5588;DHT22;2816;49.778;9.986;2023-01-15T00:01:45;8.40;99.90
5588;DHT22;2816;49.778;9.986;2023-01-15T00:04:12;8.30;99.90
5588;DHT22;2816;49.778;9.986;2023-01-15T00:06:41;8.40;99.90
5588;DHT22;2816;49.778;9.986;2023-01-15T00:09:12;8.30;99.90
5588;DHT22;2816;49.778;9.986;2023-01-15T00:11:39;8.30;99.90
5588;DHT22;2816;49.778;9.986;2023-01-15T00:14:06;8.30;99.90
5588;DHT22;2816;49.778;9.986;2023-01-15T00:16:33;8.40;99.90
5588;DHT22;2816;49.778;9.986;2023-01-15T00:19:00;8.30;99.90
5588;DHT22;2816;49.778;9.986;2023-01-15T00:21:29;8.30;99.90
5588;DHT22;2816;49.778;9.986;2023-01-15T00:23:57;8.30;99.90
5588;DHT22;2816;49.778;9.986;2023-01-15T00:26:42;8.40;99.90
5588;DHT22;2816;49.778;9.986;2023-01-15T00:29:26;8.40;99.90
5588;DHT22;2816;49.778;9.986;2023-01-15T00:31:55;8.40;99.90
5588;DHT22;2816;49.778;9.986;2023-01-15T00:34:23;8.40;99.90
5588;DHT22;2816;49.778;9.986;2023-01-15T00:36:50;8.60;99.90
5588;DHT22;2816;49.778;9.986;2023-01-15T00:39:19;8.50;99.90
5588;DHT22;2816;49.778;9.986;2023-01-15T00:41:49;8.50;99.90
5588;DHT22;2816;49.778;9.986;2023-01-15T00:44:16;8.70;99.90
5588;DHT22;2816;49.778;9.986;2023-01-15T00:46:43;8.70;99.90
5588;DHT22;2816;49.778;9.986;2023-01-15T00:49:10;8.70;99.90
5588;DHT22;2816;49.778;9.986;2023-01-15T00:51:37;8.70;99.90
5588;DHT22;2816;49.778;9.986;2023-01-15T00:54:04;8.50;99.90
5588;DHT22;2816;49.778;9.986;2023-01-15T00:56:33;8.80;99.90
5588;DHT22;2816;49.778;9.986;2023-01-15T00:59:00;8.70;99.90
5588;DHT22;2816;49.778;9.986;2023-01-15T01:01:28;8.60;99.90
5588;DHT22;2816;49.778;9.986;2023-01-15T01:03:54;8.70;99.90
5588;DHT22;2816;49.778;9.986;2023-01-15T01:06:21;8.70;99.90
5588;DHT22;2816;49.778;9.986;2023-01-15T01:08:48;8.60;99.90
5588;DHT22;2816;49.778;9.986;2023-01-15T01:11:18;8.60;99.90
5588;DHT22;2816;49.778;9.986;2023-01-15T01:13:46;8.50;99.90
5588;DHT22;2816;49.778;9.986;2023-01-15T01:16:26;8.60;99.90
5588;DHT22;2816;49.778;9.986;2023-01-15T01:18:55;8.60;99.90
5588;DHT22;2816;49.778;9.986;2023-01-15T01:21:22;8.60;99.90
5588;DHT22;2816;49.778;9.986;2023-01-15T01:23:49;8.60;99.90
5588;DHT22;2816;49.778;9.986;2023-01-15T01:26:16;8.50;99.90
5588;DHT22;2816;49.778;9.986;2023-01-15T01:28:49;8.50;99.90
5588;DHT22;2816;49.778;9.986;2023-01-15T01:31:17;8.60;99.90
5588;DHT22;2816;49.778;9.986;2023-01-15T01:33:46;8.60;99.90
5588;DHT22;2816;49.778;9.986;2023-01-15T01:36:13;8.60;99.90
5588;DHT22;2816;49.778;9.986;2023-01-15T01:38:40;8.60;99.90
5588;DHT22;2816;49.778;9.986;2023-01-15T01:41:07;8.60;99.90
5588;DHT22;2816;49.778;9.986;2023-01-15T01:46:31;8.50;99.90
5588;DHT22;2816;49.778;9.986;2023-01-15T01:49:02;8.60;99.90
5588;DHT22;2816;49.778;9.986;2023-01-15T01:51:34;8.60;99.90
5588;DHT22;2816;49.778;9.986;2023-01-15T01:54:02;8.70;99.90
5588;DHT22;2816;49.778;9.986;2023-01-15T01:56:32;8.70;99.90
5588;DHT22;2816;49.778;9.986;2023-01-15T01:59:01;8.70;99.90
5588;DHT22;2816;49.778;9.986;2023-01-15T02:01:30;8.70;99.90
5588;DHT22;2816;49.778;9.986;2023-01-15T02:03:57;8.70;99.90
5588;DHT22;2816;49.778;9.986;2023-01-15T02:06:25;8.70;99.90
5588;DHT22;2816;49.778;9.986;2023-01-15T02:08:53;8.80;99.90
5588;DHT22;2816;49.778;9.986;2023-01-15T02:11:21;8.70;99.90
5588;DHT22;2816;49.778;9.986;2023-01-15T02:13:54;8.80;99.90
5588;DHT22;2816;49.778;9.986;2023-01-15T02:16:27;8.70;99.90
5588;DHT22;2816;49.778;9.986;2023-01-15T02:19:06;8.70;99.90
5588;DHT22;2816;49.778;9.986;2023-01-15T02:21:45;8.80;99.90
5588;DHT22;2816;49.778;9.986;2023-01-15T02:24:18;8.70;99.90
5588;DHT22;2816;49.778;9.986;2023-01-15T02:27:15;8.70;99.90
5588;DHT22;2816;49.778;9.986;2023-01-15T02:29:52;8.60;99.90
5588;DHT22;2816;49.778;9.986;2023-01-15T02:32:27;8.70;99.90
5588;DHT22;2816;49.778;9.986;2023-01-15T02:34:58;8.60;99.90
5588;DHT22;2816;49.778;9.986;2023-01-15T02:37:29;8.70;99.90
5588;DHT22;2816;49.778;9.986;2023-01-15T02:39:59;8.60;99.90
5588;DHT22;2816;49.778;9.986;2023-01-15T02:42:30;8.60;99.90
5588;DHT22;2816;49.778;9.986;2023-01-15T02:45:01;8.60;99.90
5588;DHT22;2816;49.778;9.986;2023-01-15T02:47:32;8.70;99.90
5588;DHT22;2816;49.778;9.986;2023-01-15T02:50:03;8.60;99.90
5588;DHT22;2816;49.778;9.986;2023-01-15T02:52:36;8.60;99.90
5588;DHT22;2816;49.778;9.986;2023-01-15T02:55:08;8.60;99.90
5588;DHT22;2816;49.778;9.986;2023-01-15T02:57:39;8.70;99.90
5588;DHT22;2816;49.778;9.986;2023-01-15T03:00:10;8.60;99.90
5588;DHT22;2816;49.778;9.986;2023-01-15T03:02:42;8.70;99.90
5588;DHT22;2816;49.778;9.986;2023-01-15T03:05:12;8.70;99.90
5588;DHT22;2816;49.778;9.986;2023-01-15T03:07:46;8.60;99.90
5588;DHT22;2816;49.778;9.986;2023-01-15T03:10:14;8.70;99.90
5588;DHT22;2816;49.778;9.986;2023-01-15T03:12:46;8.70;99.90
5588;DHT22;2816;49.778;9.986;2023-01-15T03:15:39;8.60;99.90
5588;DHT22;2816;49.778;9.986;2023-01-15T03:18:27;8.70;99.90
5588;DHT22;2816;49.778;9.986;2023-01-15T03:20:58;8.60;99.90
5588;DHT22;2816;49.778;9.986;2023-01-15T03:23:28;8.70;99.90
5588;DHT22;2816;49.778;9.986;2023-01-15T03:25:55;8.60;99.90
5588;DHT22;2816;49.778;9.986;2023-01-15T03:28:26;8.70;99.90
5588;DHT22;2816;49.778;9.986;2023-01-15T03:30:53;8.70;99.90
5588;DHT22;2816;49.778;9.986;2023-01-15T03:33:21;8.60;99.90
5588;DHT22;2816;49.778;9.986;2023-01-15T03:35:49;8.70;99.90
5588;DHT22;2816;49.778;9.986;2023-01-15T03:38:20;8.70;99.90
5588;DHT22;2816;49.778;9.986;2023-01-15T03:40:52;8.70;99.90
5588;DHT22;2816;49.778;9.986;2023-01-15T03:43:31;8.70;99.90
5588;DHT22;2816;49.778;9.986;2023-01-15T03:46:30;8.70;99.90
5588;DHT22;2816;49.778;9.986;2023-01-15T03:49:06;8.70;99.90
5588;DHT22;2816;49.778;9.986;2023-01-15T03:51:39;8.70;99.90
5588;DHT22;2816;49.778;9.986;2023-01-15T03:54:11;8.70;99.90
5588;DHT22;2816;49.778;9.986;2023-01-15T03:56:48;8.70;99.90
5588;DHT22;2816;49.778;9.986;2023-01-15T03:59:25;8.70;99.90
5588;DHT22;2816;49.778;9.986;2023-01-15T04:01:54;8.70;99.90
5588;DHT22;2816;49.778;9.986;2023-01-15T04:04:22;8.70;99.90
5588;DHT22;2816;49.778;9.986;2023-01-15T04:06:50;8.70;99.90
5588;DHT22;2816;49.778;9.986;2023-01-15T04:09:18;8.90;99.90
5588;DHT22;2816;49.778;9.986;2023-01-15T04:11:46;8.80;99.90
5588;DHT22;2816;49.778;9.986;2023-01-15T04:14:13;8.80;99.90
5588;DHT22;2816;49.778;9.986;2023-01-15T04:16:44;8.80;99.90
5588;DHT22;2816;49.778;9.986;2023-01-15T04:19:11;8.80;99.90
5588;DHT22;2816;49.778;9.986;2023-01-15T04:21:38;8.80;99.90
5588;DHT22;2816;49.778;9.986;2023-01-15T04:24:06;8.80;99.90
5588;DHT22;2816;49.778;9.986;2023-01-15T04:26:33;8.80;99.90
5588;DHT22;2816;49.778;9.986;2023-01-15T04:29:00;9.00;99.90
5588;DHT22;2816;49.778;9.986;2023-01-15T04:31:27;9.00;99.90
5588;DHT22;2816;49.778;9.986;2023-01-15T04:33:55;8.80;99.90
5588;DHT22;2816;49.778;9.986;2023-01-15T04:36:22;8.70;99.90
5588;DHT22;2816;49.778;9.986;2023-01-15T04:38:49;8.60;99.90
5588;DHT22;2816;49.778;9.986;2023-01-15T04:41:15;8.60;99.90
5588;DHT22;2816;49.778;9.986;2023-01-15T04:44:00;8.50;99.90
5588;DHT22;2816;49.778;9.986;2023-01-15T04:46:33;8.50;99.90
5588;DHT22;2816;49.778;9.986;2023-01-15T04:49:02;8.30;99.90
5588;DHT22;2816;49.778;9.986;2023-01-15T04:51:29;8.20;99.90
5588;DHT22;2816;49.778;9.986;2023-01-15T04:53:56;8.00;99.90
5588;DHT22;2816;49.778;9.986;2023-01-15T04:56:26;7.90;99.90
5588;DHT22;2816;49.778;9.986;2023-01-15T04:58:53;7.80;99.90
5588;DHT22;2816;49.778;9.986;2023-01-15T05:01:20;7.80;99.90
5588;DHT22;2816;49.778;9.986;2023-01-15T05:03:47;7.60;99.90
5588;DHT22;2816;49.778;9.986;2023-01-15T05:06:15;7.40;99.90
5588;DHT22;2816;49.778;9.986;2023-01-15T05:08:43;7.40;99.90
5588;DHT22;2816;49.778;9.986;2023-01-15T05:11:10;7.30;99.90
5588;DHT22;2816;49.778;9.986;2023-01-15T05:13:37;7.30;99.90
5588;DHT22;2816;49.778;9.986;2023-01-15T05:16:09;7.20;99.90
5588;DHT22;2816;49.778;9.986;2023-01-15T05:18:36;7.00;99.90
5588;DHT22;2816;49.778;9.986;2023-01-15T05:21:04;7.00;99.90
5588;DHT22;2816;49.778;9.986;2023-01-15T05:23:32;7.10;99.90
5588;DHT22;2816;49.778;9.986;2023-01-15T05:26:02;7.10;99.90
5588;DHT22;2816;49.778;9.986;2023-01-15T05:28:29;7.10;99.90
5588;DHT22;2816;49.778;9.986;2023-01-15T05:30:56;7.10;99.90
5588;DHT22;2816;49.778;9.986;2023-01-15T05:33:23;7.00;99.90
5588;DHT22;2816;49.778;9.986;2023-01-15T05:35:50;7.10;99.90
5588;DHT22;2816;49.778;9.986;2023-01-15T05:38:17;6.90;99.90
5588;DHT22;2816;49.778;9.986;2023-01-15T05:40:45;7.00;99.90
5588;DHT22;2816;49.778;9.986;2023-01-15T05:43:13;6.90;99.90
5588;DHT22;2816;49.778;9.986;2023-01-15T05:45:39;6.70;99.90
5588;DHT22;2816;49.778;9.986;2023-01-15T05:48:06;6.80;99.90
5588;DHT22;2816;49.778;9.986;2023-01-15T05:50:33;6.60;99.90
5588;DHT22;2816;49.778;9.986;2023-01-15T05:53:00;6.60;99.90
5588;DHT22;2816;49.778;9.986;2023-01-15T05:55:27;6.50;99.90
5588;DHT22;2816;49.778;9.986;2023-01-15T05:57:55;6.50;99.90
5588;DHT22;2816;49.778;9.986;2023-01-15T06:00:23;6.40;99.90
5588;DHT22;2816;49.778;9.986;2023-01-15T06:02:51;6.60;99.90
5588;DHT22;2816;49.778;9.986;2023-01-15T06:05:18;6.40;99.90
5588;DHT22;2816;49.778;9.986;2023-01-15T06:07:47;6.60;99.90
5588;DHT22;2816;49.778;9.986;2023-01-15T06:10:15;6.30;99.90
5588;DHT22;2816;49.778;9.986;2023-01-15T06:12:42;6.20;99.90
5588;DHT22;2816;49.778;9.986;2023-01-15T06:15:11;6.30;99.90
5588;DHT22;2816;49.778;9.986;2023-01-15T06:17:38;6.40;99.90
5588;DHT22;2816;49.778;9.986;2023-01-15T06:20:06;6.30;99.90
5588;DHT22;2816;49.778;9.986;2023-01-15T06:22:34;6.30;99.90
5588;DHT22;2816;49.778;9.986;2023-01-15T06:25:03;6.30;99.90
5588;DHT22;2816;49.778;9.986;2023-01-15T06:27:30;6.30;99.90
5588;DHT22;2816;49.778;9.986;2023-01-15T06:29:57;6.20;99.90
5588;DHT22;2816;49.778;9.986;2023-01-15T06:32:26;6.10;99.90
5588;DHT22;2816;49.778;9.986;2023-01-15T06:34:53;6.10;99.90
5588;DHT22;2816;49.778;9.986;2023-01-15T06:37:20;6.10;99.90
5588;DHT22;2816;49.778;9.986;2023-01-15T06:39:47;5.90;99.90
5588;DHT22;2816;49.778;9.986;2023-01-15T06:42:14;5.90;99.90
5588;DHT22;2816;49.778;9.986;2023-01-15T06:44:58;5.90;99.90
5588;DHT22;2816;49.778;9.986;2023-01-15T06:47:43;5.80;99.90
5588;DHT22;2816;49.778;9.986;2023-01-15T06:50:11;5.70;99.90
5588;DHT22;2816;49.778;9.986;2023-01-15T06:52:38;5.70;99.90
5588;DHT22;2816;49.778;9.986;2023-01-15T06:55:06;5.60;99.90
5588;DHT22;2816;49.778;9.986;2023-01-15T06:57:33;5.50;99.90
5588;DHT22;2816;49.778;9.986;2023-01-15T07:00:00;5.40;99.90
5588;DHT22;2816;49.778;9.986;2023-01-15T07:02:27;5.40;99.90
5588;DHT22;2816;49.778;9.986;2023-01-15T07:04:55;5.40;99.90
5588;DHT22;2816;49.778;9.986;2023-01-15T07:07:22;5.50;99.90
5588;DHT22;2816;49.778;9.986;2023-01-15T07:09:49;5.50;99.90
5588;DHT22;2816;49.778;9.986;2023-01-15T07:12:16;5.50;99.90
5588;DHT22;2816;49.778;9.986;2023-01-15T07:14:43;5.50;99.90
5588;DHT22;2816;49.778;9.986;2023-01-15T07:17:11;5.40;99.90
5588;DHT22;2816;49.778;9.986;2023-01-15T07:19:38;5.40;99.90
5588;DHT22;2816;49.778;9.986;2023-01-15T07:22:06;5.40;99.90
5588;DHT22;2816;49.778;9.986;2023-01-15T07:24:33;5.40;99.90
5588;DHT22;2816;49.778;9.986;2023-01-15T07:27:00;5.30;99.90
5588;DHT22;2816;49.778;9.986;2023-01-15T07:29:27;5.30;99.90
5588;DHT22;2816;49.778;9.986;2023-01-15T07:31:55;5.10;99.90
5588;DHT22;2816;49.778;9.986;2023-01-15T07:34:22;5.30;99.90
5588;DHT22;2816;49.778;9.986;2023-01-15T07:36:49;5.10;99.90
5588;DHT22;2816;49.778;9.986;2023-01-15T07:39:18;5.20;99.90
5588;DHT22;2816;49.778;9.986;2023-01-15T07:41:45;5.10;99.90
5588;DHT22;2816;49.778;9.986;2023-01-15T07:44:29;4.90;99.90
5588;DHT22;2816;49.778;9.986;2023-01-15T07:47:16;4.90;99.90
5588;DHT22;2816;49.778;9.986;2023-01-15T07:50:03;4.80;99.90
5588;DHT22;2816;49.778;9.986;2023-01-15T07:52:30;5.10;99.90
5588;DHT22;2816;49.778;9.986;2023-01-15T07:54:59;4.90;99.90
5588;DHT22;2816;49.778;9.986;2023-01-15T07:57:26;4.80;99.90
5588;DHT22;2816;49.778;9.986;2023-01-15T07:59:53;4.80;99.90
5588;DHT22;2816;49.778;9.986;2023-01-15T08:02:20;4.80;99.90
5588;DHT22;2816;49.778;9.986;2023-01-15T08:04:47;4.60;99.90
5588;DHT22;2816;49.778;9.986;2023-01-15T08:07:14;4.60;99.90
5588;DHT22;2816;49.778;9.986;2023-01-15T08:09:41;4.70;99.90
5588;DHT22;2816;49.778;9.986;2023-01-15T08:12:10;4.70;99.90
5588;DHT22;2816;49.778;9.986;2023-01-15T08:14:55;5.10;99.90
5588;DHT22;2816;49.778;9.986;2023-01-15T08:17:42;4.90;99.90
5588;DHT22;2816;49.778;9.986;2023-01-15T08:20:11;4.70;99.90
5588;DHT22;2816;49.778;9.986;2023-01-15T08:22:39;4.60;99.90
5588;DHT22;2816;49.778;9.986;2023-01-15T08:25:07;4.60;99.90
5588;DHT22;2816;49.778;9.986;2023-01-15T08:27:37;4.60;99.90
5588;DHT22;2816;49.778;9.986;2023-01-15T08:30:06;4.60;99.90
5588;DHT22;2816;49.778;9.986;2023-01-15T08:32:34;4.60;99.90
5588;DHT22;2816;49.778;9.986;2023-01-15T08:35:01;4.60;99.90
5588;DHT22;2816;49.778;9.986;2023-01-15T08:37:28;4.80;99.90
5588;DHT22;2816;49.778;9.986;2023-01-15T08:39:55;4.80;99.90
5588;DHT22;2816;49.778;9.986;2023-01-15T08:42:22;4.70;99.90
5588;DHT22;2816;49.778;9.986;2023-01-15T08:44:50;5.00;99.90
5588;DHT22;2816;49.778;9.986;2023-01-15T08:47:17;4.90;99.90
5588;DHT22;2816;49.778;9.986;2023-01-15T08:49:45;4.70;99.90
5588;DHT22;2816;49.778;9.986;2023-01-15T08:52:13;4.70;99.90
5588;DHT22;2816;49.778;9.986;2023-01-15T08:54:40;4.60;99.90
5588;DHT22;2816;49.778;9.986;2023-01-15T08:57:08;4.60;99.90
5588;DHT22;2816;49.778;9.986;2023-01-15T08:59:36;4.70;99.90
5588;DHT22;2816;49.778;9.986;2023-01-15T09:02:04;4.70;99.90
5588;DHT22;2816;49.778;9.986;2023-01-15T09:04:31;4.60;99.90
5588;DHT22;2816;49.778;9.986;2023-01-15T09:06:58;4.80;99.90
5588;DHT22;2816;49.778;9.986;2023-01-15T09:09:25;4.70;99.90
5588;DHT22;2816;49.778;9.986;2023-01-15T09:11:52;5.00;99.90
5588;DHT22;2816;49.778;9.986;2023-01-15T09:14:20;4.90;99.90
5588;DHT22;2816;49.778;9.986;2023-01-15T09:16:47;4.70;99.90
5588;DHT22;2816;49.778;9.986;2023-01-15T09:19:15;4.90;99.90
5588;DHT22;2816;49.778;9.986;2023-01-15T09:21:42;4.80;99.90
5588;DHT22;2816;49.778;9.986;2023-01-15T09:24:09;4.70;99.90
5588;DHT22;2816;49.778;9.986;2023-01-15T09:26:38;4.60;99.90
5588;DHT22;2816;49.778;9.986;2023-01-15T09:29:06;4.60;99.90
5588;DHT22;2816;49.778;9.986;2023-01-15T09:31:34;4.60;99.90
5588;DHT22;2816;49.778;9.986;2023-01-15T09:34:01;4.60;99.90
5588;DHT22;2816;49.778;9.986;2023-01-15T09:36:31;4.70;99.90
5588;DHT22;2816;49.778;9.986;2023-01-15T09:38:59;4.60;99.90
5588;DHT22;2816;49.778;9.986;2023-01-15T09:41:35;4.60;99.90
5588;DHT22;2816;49.778;9.986;2023-01-15T09:44:31;4.70;99.90
5588;DHT22;2816;49.778;9.986;2023-01-15T09:47:07;4.70;99.90
5588;DHT22;2816;49.778;9.986;2023-01-15T09:49:59;4.90;99.90
5588;DHT22;2816;49.778;9.986;2023-01-15T09:52:43;4.80;99.90
5588;DHT22;2816;49.778;9.986;2023-01-15T09:55:17;4.80;99.90
5588;DHT22;2816;49.778;9.986;2023-01-15T09:57:48;4.80;99.90
5588;DHT22;2816;49.778;9.986;2023-01-15T10:00:18;4.80;99.90
5588;DHT22;2816;49.778;9.986;2023-01-15T10:02:49;4.60;99.90
5588;DHT22;2816;49.778;9.986;2023-01-15T10:05:18;4.70;99.90
5588;DHT22;2816;49.778;9.986;2023-01-15T10:07:57;4.80;99.90
5588;DHT22;2816;49.778;9.986;2023-01-15T10:10:27;4.80;99.90
5588;DHT22;2816;49.778;9.986;2023-01-15T10:13:07;4.80;99.90
5588;DHT22;2816;49.778;9.986;2023-01-15T10:15:43;4.80;99.90
5588;DHT22;2816;49.778;9.986;2023-01-15T10:18:13;4.80;99.90
5588;DHT22;2816;49.778;9.986;2023-01-15T10:20:51;4.70;99.90
5588;DHT22;2816;49.778;9.986;2023-01-15T10:23:36;4.60;99.90
5588;DHT22;2816;49.778;9.986;2023-01-15T10:26:12;4.50;99.90
5588;DHT22;2816;49.778;9.986;2023-01-15T10:29:05;4.50;99.90
5588;DHT22;2816;49.778;9.986;2023-01-15T10:31:47;4.70;99.90
5588;DHT22;2816;49.778;9.986;2023-01-15T10:34:59;4.70;99.90
5588;DHT22;2816;49.778;9.986;2023-01-15T10:37:36;4.80;99.90
5588;DHT22;2816;49.778;9.986;2023-01-15T10:40:24;4.70;99.90
5588;DHT22;2816;49.778;9.986;2023-01-15T10:43:00;4.70;99.90
5588;DHT22;2816;49.778;9.986;2023-01-15T10:45:32;4.70;99.90
5588;DHT22;2816;49.778;9.986;2023-01-15T10:48:04;4.70;99.90
5588;DHT22;2816;49.778;9.986;2023-01-15T10:50:35;4.60;99.90
5588;DHT22;2816;49.778;9.986;2023-01-15T10:53:10;4.70;99.90
5588;DHT22;2816;49.778;9.986;2023-01-15T10:55:43;4.70;99.90
5588;DHT22;2816;49.778;9.986;2023-01-15T10:58:15;4.80;99.90
5588;DHT22;2816;49.778;9.986;2023-01-15T11:00:48;5.00;99.90
5588;DHT22;2816;49.778;9.986;2023-01-15T11:03:19;4.80;99.90
5588;DHT22;2816;49.778;9.986;2023-01-15T11:05:48;4.80;99.90
5588;DHT22;2816;49.778;9.986;2023-01-15T11:08:21;4.90;99.90
5588;DHT22;2816;49.778;9.986;2023-01-15T11:10:53;4.80;99.90
5588;DHT22;2816;49.778;9.986;2023-01-15T11:13:22;4.90;99.90
5588;DHT22;2816;49.778;9.986;2023-01-15T11:16:13;4.90;99.90
5588;DHT22;2816;49.778;9.986;2023-01-15T11:19:00;4.80;99.90
5588;DHT22;2816;49.778;9.986;2023-01-15T11:21:45;4.90;99.90
5588;DHT22;2816;49.778;9.986;2023-01-15T11:24:14;4.80;99.90
5588;DHT22;2816;49.778;9.986;2023-01-15T11:26:46;4.80;99.90
5588;DHT22;2816;49.778;9.986;2023-01-15T11:29:15;4.50;99.90
5588;DHT22;2816;49.778;9.986;2023-01-15T11:31:46;4.40;99.90
5588;DHT22;2816;49.778;9.986;2023-01-15T11:34:19;4.20;99.90
5588;DHT22;2816;49.778;9.986;2023-01-15T11:36:47;4.10;99.90
5588;DHT22;2816;49.778;9.986;2023-01-15T11:39:25;4.20;99.90
5588;DHT22;2816;49.778;9.986;2023-01-15T11:41:59;4.10;99.90
5588;DHT22;2816;49.778;9.986;2023-01-15T11:44:54;4.00;99.90
5588;DHT22;2816;49.778;9.986;2023-01-15T11:47:38;3.90;99.90
5588;DHT22;2816;49.778;9.986;2023-01-15T11:50:23;4.00;99.90
5588;DHT22;2816;49.778;9.986;2023-01-15T11:53:13;4.00;99.90
5588;DHT22;2816;49.778;9.986;2023-01-15T11:55:50;3.90;99.90
5588;DHT22;2816;49.778;9.986;2023-01-15T11:58:19;4.10;99.90
5588;DHT22;2816;49.778;9.986;2023-01-15T12:00:50;4.00;99.90
5588;DHT22;2816;49.778;9.986;2023-01-15T12:03:20;4.10;99.90
5588;DHT22;2816;49.778;9.986;2023-01-15T12:05:54;4.20;99.90
5588;DHT22;2816;49.778;9.986;2023-01-15T12:08:31;4.30;99.90
5588;DHT22;2816;49.778;9.986;2023-01-15T12:11:11;4.30;99.90
5588;DHT22;2816;49.778;9.986;2023-01-15T12:13:49;4.20;99.90
5588;DHT22;2816;49.778;9.986;2023-01-15T12:16:25;4.20;99.90
5588;DHT22;2816;49.778;9.986;2023-01-15T12:18:57;4.30;99.90
5588;DHT22;2816;49.778;9.986;2023-01-15T12:21:58;4.40;99.90
5588;DHT22;2816;49.778;9.986;2023-01-15T12:27:52;4.60;99.90
5588;DHT22;2816;49.778;9.986;2023-01-15T12:30:37;4.70;99.90
5588;DHT22;2816;49.778;9.986;2023-01-15T12:33:35;4.70;99.90
5588;DHT22;2816;49.778;9.986;2023-01-15T12:36:09;4.50;99.90
5588;DHT22;2816;49.778;9.986;2023-01-15T12:38:45;4.60;99.90
5588;DHT22;2816;49.778;9.986;2023-01-15T12:41:15;4.60;99.90
5588;DHT22;2816;49.778;9.986;2023-01-15T12:43:46;4.70;99.90
5588;DHT22;2816;49.778;9.986;2023-01-15T12:46:36;4.60;99.90
5588;DHT22;2816;49.778;9.986;2023-01-15T12:49:11;4.70;99.90
5588;DHT22;2816;49.778;9.986;2023-01-15T12:51:46;4.60;99.90
5588;DHT22;2816;49.778;9.986;2023-01-15T12:54:19;4.70;99.90
5588;DHT22;2816;49.778;9.986;2023-01-15T12:56:56;4.60;99.90
5588;DHT22;2816;49.778;9.986;2023-01-15T12:59:29;4.70;99.90
5588;DHT22;2816;49.778;9.986;2023-01-15T13:02:09;4.60;99.90
5588;DHT22;2816;49.778;9.986;2023-01-15T13:04:43;4.40;99.90
5588;DHT22;2816;49.778;9.986;2023-01-15T13:07:17;4.50;99.90
5588;DHT22;2816;49.778;9.986;2023-01-15T13:09:51;4.40;99.90
5588;DHT22;2816;49.778;9.986;2023-01-15T13:12:21;4.40;99.90
5588;DHT22;2816;49.778;9.986;2023-01-15T13:14:47;4.50;99.90
5588;DHT22;2816;49.778;9.986;2023-01-15T13:17:25;4.80;99.90
5588;DHT22;2816;49.778;9.986;2023-01-15T13:20:08;4.50;99.90
5588;DHT22;2816;49.778;9.986;2023-01-15T13:22:44;4.70;99.90
5588;DHT22;2816;49.778;9.986;2023-01-15T13:25:33;4.80;99.90
5588;DHT22;2816;49.778;9.986;2023-01-15T13:28:24;4.80;99.90
5588;DHT22;2816;49.778;9.986;2023-01-15T13:31:03;4.70;99.90
5588;DHT22;2816;49.778;9.986;2023-01-15T13:33:35;4.70;99.90
5588;DHT22;2816;49.778;9.986;2023-01-15T13:36:10;4.50;99.90
5588;DHT22;2816;49.778;9.986;2023-01-15T13:38:41;4.50;99.90
5588;DHT22;2816;49.778;9.986;2023-01-15T13:41:09;4.50;99.90
5588;DHT22;2816;49.778;9.986;2023-01-15T13:43:38;4.70;99.90
5588;DHT22;2816;49.778;9.986;2023-01-15T13:46:09;4.60;99.90
5588;DHT22;2816;49.778;9.986;2023-01-15T13:48:43;4.60;99.90
5588;DHT22;2816;49.778;9.986;2023-01-15T13:51:24;4.80;99.90
5588;DHT22;2816;49.778;9.986;2023-01-15T13:53:53;4.70;99.90
5588;DHT22;2816;49.778;9.986;2023-01-15T13:56:28;4.80;99.90
5588;DHT22;2816;49.778;9.986;2023-01-15T13:58:58;5.10;99.90
5588;DHT22;2816;49.778;9.986;2023-01-15T14:01:30;5.10;99.90
5588;DHT22;2816;49.778;9.986;2023-01-15T14:04:04;5.20;99.90
5588;DHT22;2816;49.778;9.986;2023-01-15T14:06:41;5.10;99.90
5588;DHT22;2816;49.778;9.986;2023-01-15T14:09:10;5.30;99.90
5588;DHT22;2816;49.778;9.986;2023-01-15T14:11:40;5.20;99.90
5588;DHT22;2816;49.778;9.986;2023-01-15T14:14:44;5.10;99.90
5588;DHT22;2816;49.778;9.986;2023-01-15T14:17:46;5.20;99.90
5588;DHT22;2816;49.778;9.986;2023-01-15T14:20:42;5.00;99.90
5588;DHT22;2816;49.778;9.986;2023-01-15T14:23:25;4.90;99.90
5588;DHT22;2816;49.778;9.986;2023-01-15T14:26:07;5.00;99.90
5588;DHT22;2816;49.778;9.986;2023-01-15T14:28:53;4.80;99.90
5588;DHT22;2816;49.778;9.986;2023-01-15T14:31:38;4.90;99.90
5588;DHT22;2816;49.778;9.986;2023-01-15T14:34:13;4.70;99.90
5588;DHT22;2816;49.778;9.986;2023-01-15T14:36:50;4.80;99.90
5588;DHT22;2816;49.778;9.986;2023-01-15T14:39:25;4.90;99.90
5588;DHT22;2816;49.778;9.986;2023-01-15T14:42:00;4.90;99.90
5588;DHT22;2816;49.778;9.986;2023-01-15T14:44:45;4.80;99.90
5588;DHT22;2816;49.778;9.986;2023-01-15T14:47:26;4.80;99.90
5588;DHT22;2816;49.778;9.986;2023-01-15T14:50:00;4.80;99.90
5588;DHT22;2816;49.778;9.986;2023-01-15T14:52:29;4.90;99.90
5588;DHT22;2816;49.778;9.986;2023-01-15T14:54:57;5.00;99.90
5588;DHT22;2816;49.778;9.986;2023-01-15T14:57:25;4.80;99.90
5588;DHT22;2816;49.778;9.986;2023-01-15T14:59:56;4.80;99.90
5588;DHT22;2816;49.778;9.986;2023-01-15T15:02:31;4.50;99.90
5588;DHT22;2816;49.778;9.986;2023-01-15T15:05:00;4.80;99.90
5588;DHT22;2816;49.778;9.986;2023-01-15T15:07:34;4.70;99.90
5588;DHT22;2816;49.778;9.986;2023-01-15T15:10:04;4.80;99.90
5588;DHT22;2816;49.778;9.986;2023-01-15T15:12:37;4.60;99.90
5588;DHT22;2816;49.778;9.986;2023-01-15T15:15:11;4.50;99.90
5588;DHT22;2816;49.778;9.986;2023-01-15T15:17:45;4.60;99.90
5588;DHT22;2816;49.778;9.986;2023-01-15T15:20:27;4.50;99.90
5588;DHT22;2816;49.778;9.986;2023-01-15T15:23:03;4.50;99.90
5588;DHT22;2816;49.778;9.986;2023-01-15T15:25:34;4.50;99.90
5588;DHT22;2816;49.778;9.986;2023-01-15T15:28:03;4.40;99.90
5588;DHT22;2816;49.778;9.986;2023-01-15T15:30:33;4.50;99.90
5588;DHT22;2816;49.778;9.986;2023-01-15T15:33:03;4.50;99.90
5588;DHT22;2816;49.778;9.986;2023-01-15T15:35:31;4.60;99.90
5588;DHT22;2816;49.778;9.986;2023-01-15T15:38:03;4.50;99.90
5588;DHT22;2816;49.778;9.986;2023-01-15T15:40:32;4.60;99.90
5588;DHT22;2816;49.778;9.986;2023-01-15T15:43:05;4.50;99.90
5588;DHT22;2816;49.778;9.986;2023-01-15T15:45:55;4.40;99.90
5588;DHT22;2816;49.778;9.986;2023-01-15T15:48:40;4.40;99.90
5588;DHT22;2816;49.778;9.986;2023-01-15T15:51:29;4.40;99.90
5588;DHT22;2816;49.778;9.986;2023-01-15T15:54:13;4.50;99.90
5588;DHT22;2816;49.778;9.986;2023-01-15T15:56:47;4.50;99.90
5588;DHT22;2816;49.778;9.986;2023-01-15T15:59:26;4.30;99.90
5588;DHT22;2816;49.778;9.986;2023-01-15T16:01:54;4.40;99.90
5588;DHT22;2816;49.778;9.986;2023-01-15T16:04:21;4.30;99.90
5588;DHT22;2816;49.778;9.986;2023-01-15T16:06:49;4.40;99.90
5588;DHT22;2816;49.778;9.986;2023-01-15T16:09:21;4.50;99.90
5588;DHT22;2816;49.778;9.986;2023-01-15T16:11:50;4.30;99.90
5588;DHT22;2816;49.778;9.986;2023-01-15T16:14:20;4.20;99.90
5588;DHT22;2816;49.778;9.986;2023-01-15T16:16:48;4.20;99.90
5588;DHT22;2816;49.778;9.986;2023-01-15T16:19:19;4.20;99.90
5588;DHT22;2816;49.778;9.986;2023-01-15T16:21:47;4.20;99.90
5588;DHT22;2816;49.778;9.986;2023-01-15T16:24:24;4.10;99.90
5588;DHT22;2816;49.778;9.986;2023-01-15T16:26:58;4.10;99.90
5588;DHT22;2816;49.778;9.986;2023-01-15T16:29:29;4.10;99.90
5588;DHT22;2816;49.778;9.986;2023-01-15T16:31:56;4.20;99.90
5588;DHT22;2816;49.778;9.986;2023-01-15T16:34:26;4.10;99.90
5588;DHT22;2816;49.778;9.986;2023-01-15T16:36:54;4.20;99.90
5588;DHT22;2816;49.778;9.986;2023-01-15T16:39:25;4.20;99.90
5588;DHT22;2816;49.778;9.986;2023-01-15T16:41:55;4.20;99.90
5588;DHT22;2816;49.778;9.986;2023-01-15T16:44:38;4.20;99.90
5588;DHT22;2816;49.778;9.986;2023-01-15T16:47:20;4.20;99.90
5588;DHT22;2816;49.778;9.986;2023-01-15T16:49:48;4.10;99.90
5588;DHT22;2816;49.778;9.986;2023-01-15T16:52:43;4.20;99.90
5588;DHT22;2816;49.778;9.986;2023-01-15T16:55:35;4.10;99.90
5588;DHT22;2816;49.778;9.986;2023-01-15T16:58:31;4.20;99.90